sensor_id;sensor_type;location;lat;lon;timestamp;P1;durP1;ratioP1;P2;durP2;ratioP2
29412;SDS011;16389;50.126;8.450;2023-04-01T00:01:18;2.03;;;0.85;;
29412;SDS011;16389;50.126;8.450;2023-04-01T00:03:44;8.23;;;1.10;;
29412;SDS011;16389;50.126;8.450;2023-04-01T00:06:14;2.70;;;0.90;;
29412;SDS011;16389;50.126;8.450;2023-04-01T00:08:42;2.47;;;1.10;;
29412;SDS011;16389;50.126;8.450;2023-04-01T00:11:09;2.83;;;1.00;;
29412;SDS011;16389;50.126;8.450;2023-04-01T00:13:35;3.90;;;1.05;;
29412;SDS011;16389;50.126;8.450;2023-04-01T00:16:01;3.53;;;1.10;;
29412;SDS011;16389;50.126;8.450;2023-04-01T00:18:28;1.70;;;0.82;;
29412;SDS011;16389;50.126;8.450;2023-04-01T00:20:53;3.55;;;0.80;;
29412;SDS011;16389;50.126;8.450;2023-04-01T00:23:20;3.30;;;1.08;;
29412;SDS011;16389;50.126;8.450;2023-04-01T00:25:46;1.58;;;0.82;;
29412;SDS011;16389;50.126;8.450;2023-04-01T00:28:13;6.70;;;1.00;;
29412;SDS011;16389;50.126;8.450;2023-04-01T00:30:40;2.38;;;0.90;;
29412;SDS011;16389;50.126;8.450;2023-04-01T00:33:06;1.77;;;0.85;;
29412;SDS011;16389;50.126;8.450;2023-04-01T00:35:32;3.53;;;1.10;;
29412;SDS011;16389;50.126;8.450;2023-04-01T00:37:58;2.63;;;0.98;;
29412;SDS011;16389;50.126;8.450;2023-04-01T00:43:00;2.78;;;0.95;;
29412;SDS011;16389;50.126;8.450;2023-04-01T00:47:58;2.10;;;0.95;;
29412;SDS011;16389;50.126;8.450;2023-04-01T00:50:29;1.85;;;0.80;;
29412;SDS011;16389;50.126;8.450;2023-04-01T00:52:56;5.25;;;1.40;;
29412;SDS011;16389;50.126;8.450;2023-04-01T00:55:24;1.88;;;0.95;;
29412;SDS011;16389;50.126;8.450;2023-04-01T00:57:52;1.92;;;0.80;;
29412;SDS011;16389;50.126;8.450;2023-04-01T01:00:21;4.47;;;1.05;;
29412;SDS011;16389;50.126;8.450;2023-04-01T01:02:47;2.50;;;0.80;;
29412;SDS011;16389;50.126;8.450;2023-04-01T01:05:15;1.80;;;0.80;;
29412;SDS011;16389;50.126;8.450;2023-04-01T01:10:26;1.92;;;0.70;;
29412;SDS011;16389;50.126;8.450;2023-04-01T01:15:44;2.20;;;0.60;;
29412;SDS011;16389;50.126;8.450;2023-04-01T01:24:13;1.52;;;0.85;;
29412;SDS011;16389;50.126;8.450;2023-04-01T01:27:04;1.65;;;0.63;;
29412;SDS011;16389;50.126;8.450;2023-04-01T01:35:51;1.55;;;0.85;;
29412;SDS011;16389;50.126;8.450;2023-04-01T01:38:21;1.98;;;1.00;;
29412;SDS011;16389;50.126;8.450;2023-04-01T01:43:19;3.15;;;0.93;;
29412;SDS011;16389;50.126;8.450;2023-04-01T01:45:50;4.68;;;0.75;;
29412;SDS011;16389;50.126;8.450;2023-04-01T01:48:21;1.08;;;0.98;;
29412;SDS011;16389;50.126;8.450;2023-04-01T01:50:49;1.40;;;0.63;;
29412;SDS011;16389;50.126;8.450;2023-04-01T01:53:16;3.17;;;0.80;;
29412;SDS011;16389;50.126;8.450;2023-04-01T01:55:44;5.40;;;1.20;;
29412;SDS011;16389;50.126;8.450;2023-04-01T02:00:37;1.63;;;0.90;;
29412;SDS011;16389;50.126;8.450;2023-04-01T02:03:03;1.27;;;0.93;;
29412;SDS011;16389;50.126;8.450;2023-04-01T02:05:30;1.27;;;0.73;;
29412;SDS011;16389;50.126;8.450;2023-04-01T02:08:02;2.42;;;0.80;;
29412;SDS011;16389;50.126;8.450;2023-04-01T02:10:35;1.80;;;0.77;;
29412;SDS011;16389;50.126;8.450;2023-04-01T02:13:06;2.05;;;0.70;;
29412;SDS011;16389;50.126;8.450;2023-04-01T02:15:40;1.35;;;0.73;;
29412;SDS011;16389;50.126;8.450;2023-04-01T02:18:10;1.75;;;0.73;;
29412;SDS011;16389;50.126;8.450;2023-04-01T02:20:36;2.13;;;0.60;;
29412;SDS011;16389;50.126;8.450;2023-04-01T02:23:04;1.40;;;0.70;;
29412;SDS011;16389;50.126;8.450;2023-04-01T02:25:33;2.75;;;0.93;;
29412;SDS011;16389;50.126;8.450;2023-04-01T02:28:01;6.90;;;1.23;;
29412;SDS011;16389;50.126;8.450;2023-04-01T02:30:29;3.40;;;0.70;;
29412;SDS011;16389;50.126;8.450;2023-04-01T02:32:58;0.95;;;0.63;;
29412;SDS011;16389;50.126;8.450;2023-04-01T02:35:25;2.55;;;0.68;;
29412;SDS011;16389;50.126;8.450;2023-04-01T02:37:51;1.13;;;0.70;;
29412;SDS011;16389;50.126;8.450;2023-04-01T02:40:18;2.20;;;0.80;;
29412;SDS011;16389;50.126;8.450;2023-04-01T02:42:44;2.53;;;0.60;;
29412;SDS011;16389;50.126;8.450;2023-04-01T02:45:11;1.90;;;0.60;;
29412;SDS011;16389;50.126;8.450;2023-04-01T02:47:37;0.65;;;0.60;;
29412;SDS011;16389;50.126;8.450;2023-04-01T02:50:03;1.33;;;0.70;;
29412;SDS011;16389;50.126;8.450;2023-04-01T02:52:30;1.20;;;0.60;;
29412;SDS011;16389;50.126;8.450;2023-04-01T02:54:56;2.92;;;0.60;;
29412;SDS011;16389;50.126;8.450;2023-04-01T02:57:22;5.78;;;0.80;;
29412;SDS011;16389;50.126;8.450;2023-04-01T02:59:48;1.40;;;0.70;;
29412;SDS011;16389;50.126;8.450;2023-04-01T03:02:14;4.40;;;0.60;;
29412;SDS011;16389;50.126;8.450;2023-04-01T03:04:40;1.85;;;0.60;;
29412;SDS011;16389;50.126;8.450;2023-04-01T03:07:06;2.47;;;0.65;;
29412;SDS011;16389;50.126;8.450;2023-04-01T03:09:31;1.27;;;0.65;;
29412;SDS011;16389;50.126;8.450;2023-04-01T03:11:57;1.27;;;0.65;;
29412;SDS011;16389;50.126;8.450;2023-04-01T03:14:23;4.15;;;0.70;;
29412;SDS011;16389;50.126;8.450;2023-04-01T03:16:48;3.42;;;0.98;;
29412;SDS011;16389;50.126;8.450;2023-04-01T03:19:14;0.98;;;0.50;;
29412;SDS011;16389;50.126;8.450;2023-04-01T03:21:40;1.17;;;0.70;;
29412;SDS011;16389;50.126;8.450;2023-04-01T03:24:06;2.70;;;0.90;;
29412;SDS011;16389;50.126;8.450;2023-04-01T03:26:32;1.27;;;0.60;;
29412;SDS011;16389;50.126;8.450;2023-04-01T03:28:58;5.25;;;0.70;;
29412;SDS011;16389;50.126;8.450;2023-04-01T03:31:24;1.98;;;0.80;;
29412;SDS011;16389;50.126;8.450;2023-04-01T03:33:49;1.50;;;0.73;;
29412;SDS011;16389;50.126;8.450;2023-04-01T03:36:15;2.65;;;0.65;;
29412;SDS011;16389;50.126;8.450;2023-04-01T03:38:41;1.40;;;0.60;;
29412;SDS011;16389;50.126;8.450;2023-04-01T03:41:11;2.92;;;0.75;;
29412;SDS011;16389;50.126;8.450;2023-04-01T03:43:38;2.03;;;0.85;;
29412;SDS011;16389;50.126;8.450;2023-04-01T03:46:04;1.05;;;0.63;;
29412;SDS011;16389;50.126;8.450;2023-04-01T03:48:30;1.88;;;0.90;;
29412;SDS011;16389;50.126;8.450;2023-04-01T03:50:55;0.70;;;0.70;;
29412;SDS011;16389;50.126;8.450;2023-04-01T03:53:21;1.48;;;0.70;;
29412;SDS011;16389;50.126;8.450;2023-04-01T03:55:47;1.70;;;0.73;;
29412;SDS011;16389;50.126;8.450;2023-04-01T03:58:12;4.15;;;0.70;;
29412;SDS011;16389;50.126;8.450;2023-04-01T04:00:38;2.22;;;0.70;;
29412;SDS011;16389;50.126;8.450;2023-04-01T04:03:05;1.08;;;0.75;;
29412;SDS011;16389;50.126;8.450;2023-04-01T04:05:31;2.92;;;0.73;;
29412;SDS011;16389;50.126;8.450;2023-04-01T04:07:56;3.42;;;1.05;;
29412;SDS011;16389;50.126;8.450;2023-04-01T04:10:22;2.78;;;1.00;;
29412;SDS011;16389;50.126;8.450;2023-04-01T04:12:49;1.10;;;0.80;;
29412;SDS011;16389;50.126;8.450;2023-04-01T04:15:15;2.40;;;0.75;;
29412;SDS011;16389;50.126;8.450;2023-04-01T04:17:41;1.58;;;0.95;;
29412;SDS011;16389;50.126;8.450;2023-04-01T04:20:07;2.90;;;1.00;;
29412;SDS011;16389;50.126;8.450;2023-04-01T04:22:33;1.10;;;0.70;;
29412;SDS011;16389;50.126;8.450;2023-04-01T04:24:59;2.22;;;0.80;;
29412;SDS011;16389;50.126;8.450;2023-04-01T04:27:25;2.03;;;0.63;;
29412;SDS011;16389;50.126;8.450;2023-04-01T04:29:50;1.13;;;0.60;;
29412;SDS011;16389;50.126;8.450;2023-04-01T04:32:16;1.70;;;1.35;;
29412;SDS011;16389;50.126;8.450;2023-04-01T04:34:42;2.70;;;0.80;;
29412;SDS011;16389;50.126;8.450;2023-04-01T04:37:07;4.47;;;0.90;;
29412;SDS011;16389;50.126;8.450;2023-04-01T04:39:33;0.60;;;0.50;;
29412;SDS011;16389;50.126;8.450;2023-04-01T04:41:59;1.20;;;0.68;;
29412;SDS011;16389;50.126;8.450;2023-04-01T04:44:24;2.38;;;0.80;;
29412;SDS011;16389;50.126;8.450;2023-04-01T04:46:50;1.88;;;0.77;;
29412;SDS011;16389;50.126;8.450;2023-04-01T04:49:15;1.65;;;0.60;;
29412;SDS011;16389;50.126;8.450;2023-04-01T04:51:41;2.17;;;0.82;;
29412;SDS011;16389;50.126;8.450;2023-04-01T04:54:07;3.03;;;0.80;;
29412;SDS011;16389;50.126;8.450;2023-04-01T04:56:33;1.48;;;0.70;;
29412;SDS011;16389;50.126;8.450;2023-04-01T04:59:00;1.38;;;0.75;;
29412;SDS011;16389;50.126;8.450;2023-04-01T05:01:26;0.75;;;0.60;;
29412;SDS011;16389;50.126;8.450;2023-04-01T05:03:52;3.22;;;0.80;;
29412;SDS011;16389;50.126;8.450;2023-04-01T05:06:18;1.63;;;0.90;;
29412;SDS011;16389;50.126;8.450;2023-04-01T05:08:44;1.42;;;0.77;;
29412;SDS011;16389;50.126;8.450;2023-04-01T05:11:14;1.92;;;0.90;;
29412;SDS011;16389;50.126;8.450;2023-04-01T05:13:44;0.98;;;0.70;;
29412;SDS011;16389;50.126;8.450;2023-04-01T05:16:10;1.48;;;0.73;;
29412;SDS011;16389;50.126;8.450;2023-04-01T05:18:37;2.60;;;0.80;;
29412;SDS011;16389;50.126;8.450;2023-04-01T05:21:03;1.33;;;0.60;;
29412;SDS011;16389;50.126;8.450;2023-04-01T05:23:30;2.88;;;0.90;;
29412;SDS011;16389;50.126;8.450;2023-04-01T05:25:56;1.73;;;0.75;;
29412;SDS011;16389;50.126;8.450;2023-04-01T05:28:22;3.90;;;0.77;;
29412;SDS011;16389;50.126;8.450;2023-04-01T05:30:47;1.10;;;0.65;;
29412;SDS011;16389;50.126;8.450;2023-04-01T05:33:13;1.67;;;0.80;;
29412;SDS011;16389;50.126;8.450;2023-04-01T05:35:39;2.30;;;0.80;;
29412;SDS011;16389;50.126;8.450;2023-04-01T05:38:06;2.05;;;0.70;;
29412;SDS011;16389;50.126;8.450;2023-04-01T05:40:32;0.93;;;0.60;;
29412;SDS011;16389;50.126;8.450;2023-04-01T05:42:58;2.08;;;0.60;;
29412;SDS011;16389;50.126;8.450;2023-04-01T05:45:25;2.20;;;0.82;;
29412;SDS011;16389;50.126;8.450;2023-04-01T05:47:51;2.97;;;0.93;;
29412;SDS011;16389;50.126;8.450;2023-04-01T05:50:17;0.98;;;0.60;;
29412;SDS011;16389;50.126;8.450;2023-04-01T05:52:42;2.75;;;0.63;;
29412;SDS011;16389;50.126;8.450;2023-04-01T05:55:09;2.70;;;0.80;;
29412;SDS011;16389;50.126;8.450;2023-04-01T05:57:35;2.72;;;0.80;;
29412;SDS011;16389;50.126;8.450;2023-04-01T06:00:01;0.93;;;0.60;;
29412;SDS011;16389;50.126;8.450;2023-04-01T06:02:27;6.47;;;0.90;;
29412;SDS011;16389;50.126;8.450;2023-04-01T06:04:54;1.02;;;0.60;;
29412;SDS011;16389;50.126;8.450;2023-04-01T06:07:35;1.42;;;0.60;;
29412;SDS011;16389;50.126;8.450;2023-04-01T06:10:01;2.05;;;0.80;;
29412;SDS011;16389;50.126;8.450;2023-04-01T06:30:33;4.03;;;0.68;;
29412;SDS011;16389;50.126;8.450;2023-04-01T06:36:32;4.28;;;0.95;;
29412;SDS011;16389;50.126;8.450;2023-04-01T06:44:51;3.17;;;0.75;;
29412;SDS011;16389;50.126;8.450;2023-04-01T06:50:26;1.60;;;0.50;;
29412;SDS011;16389;50.126;8.450;2023-04-01T06:53:10;2.53;;;0.40;;
29412;SDS011;16389;50.126;8.450;2023-04-01T06:56:10;1.73;;;0.50;;
29412;SDS011;16389;50.126;8.450;2023-04-01T06:59:02;2.58;;;0.63;;
29412;SDS011;16389;50.126;8.450;2023-04-01T07:01:47;3.50;;;0.40;;
29412;SDS011;16389;50.126;8.450;2023-04-01T07:04:19;1.45;;;0.50;;
29412;SDS011;16389;50.126;8.450;2023-04-01T07:06:51;0.50;;;0.45;;
29412;SDS011;16389;50.126;8.450;2023-04-01T07:09:19;1.02;;;0.50;;
29412;SDS011;16389;50.126;8.450;2023-04-01T07:11:51;0.40;;;0.40;;
29412;SDS011;16389;50.126;8.450;2023-04-01T07:14:35;1.77;;;0.40;;
29412;SDS011;16389;50.126;8.450;2023-04-01T07:17:09;1.73;;;0.50;;
29412;SDS011;16389;50.126;8.450;2023-04-01T07:25:13;1.02;;;0.50;;
29412;SDS011;16389;50.126;8.450;2023-04-01T07:27:44;0.80;;;0.60;;
29412;SDS011;16389;50.126;8.450;2023-04-01T07:30:17;0.60;;;0.43;;
29412;SDS011;16389;50.126;8.450;2023-04-01T07:35:52;1.20;;;0.40;;
29412;SDS011;16389;50.126;8.450;2023-04-01T07:41:24;1.67;;;0.50;;
29412;SDS011;16389;50.126;8.450;2023-04-01T07:44:07;0.63;;;0.40;;
29412;SDS011;16389;50.126;8.450;2023-04-01T07:49:43;1.10;;;0.43;;
29412;SDS011;16389;50.126;8.450;2023-04-01T07:55:09;0.85;;;0.40;;
29412;SDS011;16389;50.126;8.450;2023-04-01T07:57:57;0.30;;;0.30;;
29412;SDS011;16389;50.126;8.450;2023-04-01T08:00:49;2.45;;;0.40;;
29412;SDS011;16389;50.126;8.450;2023-04-01T08:03:35;1.45;;;0.50;;
29412;SDS011;16389;50.126;8.450;2023-04-01T08:06:28;2.33;;;0.30;;
29412;SDS011;16389;50.126;8.450;2023-04-01T08:17:23;1.15;;;0.40;;
29412;SDS011;16389;50.126;8.450;2023-04-01T08:22:48;1.17;;;0.50;;
29412;SDS011;16389;50.126;8.450;2023-04-01T08:25:22;0.40;;;0.40;;
29412;SDS011;16389;50.126;8.450;2023-04-01T08:27:53;0.90;;;0.30;;
29412;SDS011;16389;50.126;8.450;2023-04-01T08:30:33;0.30;;;0.30;;
29412;SDS011;16389;50.126;8.450;2023-04-01T08:33:15;0.30;;;0.30;;
29412;SDS011;16389;50.126;8.450;2023-04-01T08:36:16;0.43;;;0.30;;
29412;SDS011;16389;50.126;8.450;2023-04-01T08:38:53;0.82;;;0.40;;
29412;SDS011;16389;50.126;8.450;2023-04-01T08:41:24;0.75;;;0.30;;
29412;SDS011;16389;50.126;8.450;2023-04-01T08:46:51;0.70;;;0.40;;
29412;SDS011;16389;50.126;8.450;2023-04-01T08:52:37;0.38;;;0.30;;
29412;SDS011;16389;50.126;8.450;2023-04-01T08:55:27;0.30;;;0.30;;
29412;SDS011;16389;50.126;8.450;2023-04-01T09:01:13;0.20;;;0.20;;
29412;SDS011;16389;50.126;8.450;2023-04-01T09:13:25;1.45;;;0.35;;
29412;SDS011;16389;50.126;8.450;2023-04-01T09:28:05;0.20;;;0.20;;
29412;SDS011;16389;50.126;8.450;2023-04-01T09:30:57;0.50;;;0.30;;
29412;SDS011;16389;50.126;8.450;2023-04-01T09:57:58;0.57;;;0.30;;
